Airfield :
LOGIN :

Register | Disclaimer

   EN    FR    IT 

 










Legend :    VFR   Marginal VFR   IFR   Intensive IFR   Very Intensive IFR
Visi :
Ceiling :
>= 8 km
>= 3000ft
5 to 8 km
1000 to 3000 ft
1500m to 5 km
500 to 1000 ft
800 to 1500m
200 to 500 ft
< 800m
< 200 ft
Symbols :   Thunderstorms  Fog  Heavy snow  Heavy precipitations  Wind > 20 kt
SIGMETs :     Misc.  Thunderstorms  Icing  Turbulence  Mountain Waves  Volcanic Ashes






- Airport Elevation : 20 ft
- IATA code : LSI


EGPB - Sumburgh

CURRENT METAR :
  • 021350Z 16015KT 6000 -RA FEW004 SCT008 BKN015 07/06 Q1003

EXPIRED METARs :
  • 021320Z 15020KT 7000 -RA FEW006 SCT009 BKN016 07/06 Q1004
  • 021250Z 15021KT 7000 -RA FEW007 SCT010 BKN019 06/05 Q1005 TEMPO RA BKN012
  • 021150Z 15014KT 9000 -RA SCT012 BKN027 06/04 Q1007 TEMPO BKN012
  • 021120Z 16016KT 9000 -RA SCT012 BKN024 05/03 Q1008 TEMPO BKN012

TAF TAF EGPB
Valid from the 02 at 12:00 until the 02 at 21:00 UTC


021100Z 0212/0221 16012KT 9999 SCT020
BECMG 0212/0214 15022KT
TEMPO 0212/0221 6000 RA BKN012
PROB30
TEMPO 0212/0221 2500 +DZRA BKN004
BECMG 0216/0218 25025G35KT



MET'MAP, your aeronautical weather chart ! - Copyright ORBIFLY December 2007 - Disclaimer

ORBIFLY MET'MAP TEAM :

Programming & Development : Alexandra Zaïnal
Original concept : Baudouin d'Aumeries
Technical & hardware support : Manuel Goepfert
Assistance : Marc-Olivier Méhu




SOURCES & CREDITS :

   NOAA